Boissevain, Canada
Current Conditions -  °F | °C
As of 2:55 PM on Sunday 23 Nov 2014 (Local Time) from K06D Reporting Station
Light Snow Light Snow  
Wind Chill: -6°   Ceiling: 600
Heat Index: 14°   Visibility: 1.5mi
Dew Point: 10°   Wind: 26mph
Humidity: 86%   Direction: 330°NNW
Pressure: 29.54"   Gusts: 30mph
Location:  49.23°N, 100.05°W
Report Text: K06D 232055Z AUTO 33023G26KT 1 1/2SM -SN OVC006 M10/M12 A2954 RMK AO2 P0046
Loading
Personal Weather Stations






























Interactive Weather Map New forecast layout! Learn more

10-Day Weather Forecast

Advertisements
Track Severe Weather on mobile